Upstream stations:
SHEF ID: TIFM7 Elk River near Tiff City, Mo
STATION TYPE:
Regulating: Stage = 15.00, Flow = 21304
PRECIP STAGE STAGE(2) RIV-FLOW BAT-LOAD
in ft ft cfs volt
Ccp-Rev Ccp-Rev Ccp-Rev Ccp-Rev Ccp-Rev
(US/Central)
04/05 00:00 0.00 5.56 5.53 1742 11.58
04/05 01:00 0.00 5.57 5.55 1753 11.58
04/05 02:00 0.00 5.58 5.56 1763 11.56
04/05 03:00 0.00 5.60 5.58 1784 11.54
04/05 04:00 0.00 5.61 5.59 1795 11.52
04/05 05:00 0.00 5.64 5.61 1827 11.50
04/05 06:00 0.00 5.66 5.64 1848 11.47
04/05 07:00 0.00 5.69 5.67 1881 11.45
04/05 08:00 0.00 5.71 5.70 1903 11.50
04/05 09:00 0.00 5.73 5.71 1925 12.06
04/05 10:00 0.00 5.75 5.74 1947 12.48
04/05 11:00 0.00 5.77 5.76 1969 12.58
04/05 12:00 0.00 5.79 5.78 1992 12.76
04/05 13:00 0.00 5.80 5.80 2003 12.75
04/05 14:00 0.00 5.81 5.80 2014 12.65
04/05 15:00 0.00 5.81 5.80 2014 12.58
04/05 16:00 0.00 5.82 5.82 2026 12.51
04/05 17:00 0.00 5.82 5.81 2026 12.40
04/05 18:00 0.00 5.83 5.80 2037 12.27
04/05 19:00 0.00 5.83 5.82 2037 12.14
04/05 20:00 0.00 5.82 5.80 2026 11.91
04/05 21:00 0.00 5.82 5.81 2026 11.63
04/05 22:00 0.00 5.82 5.80 2026 11.58
04/05 23:00 0.00 5.81 5.79 2014 11.56